Vvvvvsm

CHAPTER 12 CODING

Federal Meteorological Handbook No.1 September 2005 12-2 12.5Coding Missing Data in METAR/SPECI When an element does not occur, or cannot be observed, the ...

www.ofcm.gov

C:\MyFiles\Surface Weather Observation Basic Training\Students

Ch. 1 Pg. 1 CHAPTER 1 - GENERAL PROCEDURES 1.1 Introduction This chapter explains the types of surface weather observations and prescribes practices for taking ...

www.srh.noaa.gov

AVIATION WEATHER OBSERVATIONS

NATIONAL WEATHER SERVICE OBSERVING HANDBOOK NO. 8 AVIATION WEATHER OBSERVATIONS for Supplementary Aviation Weather Reporting Stations (SAWRS) MANUAL OBSERVATIONS ...

www.nws.noaa.gov

U.S. METAR/SPECI CODE FORMAT WITH REMARKS

U.S. METAR/SPECI CODE FORMAT WITH REMARKS METAR/SPECI_ CCCC_ YYGGggZ_AUTO_COR_dddff(f)Gf m f m (f m)KT_d n d n d n Vd x d x d x _VVVVVSM_[RD R D R /V R V R V R V R FT ...

wx.erau.edu

Training Guide in Surface Weather Observations

METAR KWSH 031558Z 11014KT 7SM −SHRA BKN040 28/21 A3005 Training Guide in Surface Weather Observations MAY 1998 U.S. DEPARTMENT OF COMMERCE NATIONAL OCEANIC AND ...

www.nws.noaa.gov

Surface Weather Observations and Reports

OFFICE OF THE FEDERALCOORDINAT OR FOR METEOROLOGICAL SERVICES AND SUPPORTING RESEARCH U.S. DEPARTMENT OF COMMERCE/National Oceanic and Atmospheric Administration ...

www.ofcm.gov

Other sites you could try:

Find videos related to Vvvvvsm